Time;durP1;ratioP1;P1;durP2;ratioP2;P2;SDS_P1;SDS_P2;PMS_P1;PMS_P2;Temp;Humidity;BMP_temperature;BMP_pressure;BME280_temperature;BME280_humidity;BME280_pressure;Samples;Min_cycle;Max_cycle;Signal;HPM_P1;HPM_P2
2023/06/10 00:00:43;;;;;;;;;;;20.50;69.20;;;;;;5095903;28;20669;-71
2023/06/10 00:03:09;;;;;;;8.57;4.65;;;20.50;69.50;;;;;;5073374;28;21618;-71
2023/06/10 00:05:35;;;;;;;9.05;5.10;;;20.50;69.30;;;;;;5066479;28;20058;-72
2023/06/10 00:08:07;;;;;;;7.45;5.03;;;20.40;69.60;;;;;;5090860;28;20055;-74
2023/06/10 00:10:38;;;;;;;10.68;5.63;;;20.40;69.60;;;;;;5073036;28;20040;-71
2023/06/10 00:13:11;;;;;;;10.15;5.50;;;20.40;69.60;;;;;;5074203;28;20096;-70
2023/06/10 00:15:37;;;;;;;9.85;5.18;;;20.40;69.80;;;;;;5093237;28;20047;-71
2023/06/10 00:18:04;;;;;;;8.40;4.95;;;20.30;69.90;;;;;;5095661;28;20122;-70
2023/06/10 00:20:30;;;;;;;11.63;4.97;;;20.30;69.90;;;;;;5095072;28;20050;-70
2023/06/10 00:22:58;;;;;;;9.10;5.53;;;20.30;70.20;;;;;;5076610;28;20043;-71
2023/06/10 00:25:25;;;;;;;9.88;5.47;;;20.30;70.30;;;;;;5099555;27;20135;-70
2023/06/10 00:27:51;;;;;;;11.32;5.10;;;20.20;71.20;;;;;;5071215;28;20044;-70
2023/06/10 00:30:17;;;;;;;8.52;5.30;;;20.20;70.80;;;;;;5074974;28;20040;-71
2023/06/10 00:32:43;;;;;;;9.90;5.22;;;20.20;71.00;;;;;;5086503;28;20707;-72
2023/06/10 00:35:09;;;;;;;10.23;5.32;;;20.10;71.20;;;;;;5106771;27;20502;-71
2023/06/10 00:37:35;;;;;;;8.13;5.38;;;20.10;71.50;;;;;;5075633;28;20154;-70
2023/06/10 00:40:02;;;;;;;9.50;5.68;;;20.10;71.70;;;;;;5074979;28;20088;-72
2023/06/10 00:42:28;;;;;;;8.30;5.60;;;20.00;71.90;;;;;;5090361;28;22406;-70
2023/06/10 00:44:55;;;;;;;9.85;5.57;;;20.00;72.10;;;;;;5089558;28;20135;-72
2023/06/10 00:47:21;;;;;;;7.85;5.35;;;19.90;72.40;;;;;;5065332;28;20083;-70
2023/06/10 00:49:49;;;;;;;9.53;5.87;;;19.90;72.70;;;;;;5093250;28;20626;-70
2023/06/10 00:52:17;;;;;;;9.52;5.20;;;19.80;73.00;;;;;;5070619;28;20062;-72
2023/06/10 00:54:43;;;;;;;9.88;5.85;;;19.80;73.30;;;;;;5094830;28;20052;-71
2023/06/10 00:57:09;;;;;;;9.10;5.40;;;19.80;73.60;;;;;;5079001;28;20048;-71
2023/06/10 00:59:35;;;;;;;9.13;5.55;;;19.70;73.90;;;;;;5067333;28;20105;-70
2023/06/10 01:02:02;;;;;;;9.85;5.57;;;19.70;74.10;;;;;;5091867;28;20050;-71
2023/06/10 01:04:28;;;;;;;9.88;5.97;;;19.70;75.10;;;;;;5093608;28;20114;-70
2023/06/10 01:07:05;;;;;;;10.38;6.25;;;19.60;74.60;;;;;;5109820;28;20108;-71
2023/06/10 01:10:01;;;;;;;9.85;6.10;;;19.60;75.20;;;;;;5066907;28;20096;-71
2023/06/10 01:12:48;;;;;;;9.70;5.78;;;19.60;75.60;;;;;;5070594;28;21710;-71
2023/06/10 01:15:17;;;;;;;10.65;5.72;;;19.50;75.80;;;;;;5098708;28;20055;-70
2023/06/10 01:17:57;;;;;;;10.77;5.80;;;19.40;76.20;;;;;;5078988;28;20471;-70
2023/06/10 01:20:26;;;;;;;12.23;5.50;;;19.40;76.40;;;;;;5113401;27;20096;-70
2023/06/10 01:22:56;;;;;;;13.23;6.28;;;19.30;77.00;;;;;;5098683;28;20040;-71
2023/06/10 01:25:27;;;;;;;13.57;6.38;;;19.30;77.20;;;;;;5079061;28;20050;-71
2023/06/10 01:28:06;;;;;;;8.05;5.60;;;19.20;77.60;;;;;;5091925;28;20036;-70
2023/06/10 01:30:45;;;;;;;12.43;6.68;;;19.10;78.20;;;;;;5079407;28;20039;-71
2023/06/10 01:33:17;;;;;;;12.25;6.47;;;19.10;78.60;;;;;;5070968;28;20130;-70
2023/06/10 01:35:44;;;;;;;11.07;6.30;;;19.10;78.90;;;;;;5099903;27;20067;-72
2023/06/10 01:38:10;;;;;;;;;;;19.00;79.10;;;;;;5091093;28;20123;-71
2023/06/10 01:40:36;;;;;;;14.93;6.33;;;19.00;79.30;;;;;;5113334;27;19920;-71
2023/06/10 01:43:02;;;;;;;11.90;6.22;;;18.90;79.60;;;;;;5079505;28;20289;-72
2023/06/10 01:45:27;;;;;;;9.45;6.25;;;18.90;80.30;;;;;;5093661;28;20036;-71
2023/06/10 01:47:53;;;;;;;10.57;6.45;;;18.80;80.80;;;;;;5088337;28;20065;-69
2023/06/10 01:50:19;;;;;;;12.88;6.80;;;18.80;81.30;;;;;;5076640;28;20052;-70
2023/06/10 01:52:45;;;;;;;11.30;6.50;;;18.80;81.50;;;;;;5088979;28;20047;-71
2023/06/10 01:55:11;;;;;;;8.33;6.10;;;18.80;81.60;;;;;;5095634;28;20831;-70
2023/06/10 01:57:36;;;;;;;9.48;6.25;;;18.80;82.10;;;;;;5088114;28;20046;-71
2023/06/10 02:00:03;;;;;;;10.15;6.78;;;18.80;82.10;;;;;;5098022;28;20178;-71
2023/06/10 02:02:28;;;;;;;10.60;7.17;;;18.70;82.40;;;;;;5077553;28;20047;-71
2023/06/10 02:04:55;;;;;;;10.55;6.65;;;18.70;82.70;;;;;;5098133;28;20342;-70
2023/06/10 02:07:20;;;;;;;10.05;6.47;;;18.60;83.10;;;;;;5073747;28;20112;-70
2023/06/10 02:09:46;;;;;;;10.15;6.47;;;18.50;83.60;;;;;;5070319;28;20874;-71
2023/06/10 02:12:11;;;;;;;8.93;6.25;;;18.50;84.20;;;;;;5108679;27;20042;-70
2023/06/10 02:14:37;;;;;;;12.52;6.68;;;18.50;84.70;;;;;;5076873;28;20056;-71
2023/06/10 02:17:04;;;;;;;12.88;6.45;;;18.50;85.00;;;;;;5074118;28;20051;-71
2023/06/10 02:19:30;;;;;;;12.25;6.68;;;18.50;85.10;;;;;;5102003;27;20058;-71
2023/06/10 02:21:56;;;;;;;11.55;6.70;;;18.50;85.60;;;;;;5096608;28;20136;-71
2023/06/10 02:24:22;;;;;;;11.02;6.63;;;18.50;85.80;;;;;;5074897;28;20798;-70
2023/06/10 02:26:47;;;;;;;11.73;6.63;;;18.50;86.10;;;;;;5075548;28;20050;-70
2023/06/10 02:29:13;;;;;;;10.55;6.30;;;18.50;86.20;;;;;;5077248;28;20039;-72
2023/06/10 02:31:39;;;;;;;11.38;6.45;;;18.40;86.60;;;;;;5089749;28;20134;-70
2023/06/10 02:34:05;;;;;;;8.90;6.50;;;18.30;86.80;;;;;;5078602;28;20052;-70
2023/06/10 02:36:31;;;;;;;10.20;6.55;;;18.30;87.50;;;;;;5077596;28;20071;-72
2023/06/10 02:38:57;;;;;;;12.10;6.82;;;18.20;87.70;;;;;;5074659;28;20055;-71
2023/06/10 02:41:23;;;;;;;11.48;6.72;;;18.20;88.20;;;;;;5077271;28;20090;-70
2023/06/10 02:43:48;;;;;;;12.35;6.72;;;18.20;88.60;;;;;;5077536;28;20071;-70
2023/06/10 02:46:14;;;;;;;11.10;6.32;;;18.10;89.10;;;;;;5077617;28;20043;-71
2023/06/10 02:48:44;;;;;;;14.50;6.65;;;18.00;89.20;;;;;;5079671;28;20050;-71
2023/06/10 02:51:10;;;;;;;12.07;6.65;;;18.00;89.90;;;;;;5072346;28;20055;-71
2023/06/10 02:53:36;;;;;;;9.65;6.68;;;17.90;90.30;;;;;;5078193;28;20087;-71
2023/06/10 02:56:02;;;;;;;12.65;6.78;;;18.00;90.30;;;;;;5075849;28;20608;-71
2023/06/10 02:58:27;;;;;;;12.30;7.20;;;17.90;90.50;;;;;;5069993;28;20052;-71
2023/06/10 03:00:53;;;;;;;9.55;6.43;;;17.90;90.70;;;;;;5072994;28;20077;-69
2023/06/10 03:03:18;;;;;;;9.65;6.70;;;17.90;90.90;;;;;;5101894;27;20066;-71
2023/06/10 03:05:44;;;;;;;10.13;6.10;;;17.80;91.20;;;;;;5097684;28;20114;-70
2023/06/10 03:08:10;;;;;;;11.68;6.60;;;17.80;91.30;;;;;;5079643;28;20112;-70
2023/06/10 03:10:35;;;;;;;14.63;6.68;;;17.90;91.40;;;;;;5085095;28;20040;-70
2023/06/10 03:13:01;;;;;;;8.77;6.50;;;17.80;91.60;;;;;;5071582;28;20047;-71
2023/06/10 03:15:28;;;;;;;11.02;6.80;;;17.80;91.80;;;;;;5077471;28;20071;-71
2023/06/10 03:17:55;;;;;;;11.90;7.05;;;17.80;91.80;;;;;;5066997;28;20461;-69
2023/06/10 03:20:21;;;;;;;11.57;6.43;;;17.70;92.00;;;;;;5069113;28;20035;-70
2023/06/10 03:22:47;;;;;;;12.17;6.83;;;17.70;92.10;;;;;;5105848;27;20075;-70
2023/06/10 03:25:14;;;;;;;9.82;6.45;;;17.70;92.40;;;;;;5065856;28;20189;-72
2023/06/10 03:27:42;;;;;;;12.38;6.45;;;17.60;92.70;;;;;;5091410;28;20614;-71
2023/06/10 03:30:08;;;;;;;;;;;17.60;93.10;;;;;;5092927;28;20093;-70
2023/06/10 03:32:35;;;;;;;12.18;6.90;;;17.50;93.00;;;;;;5091405;28;19923;-70
2023/06/10 03:35:01;;;;;;;10.23;6.60;;;17.50;93.00;;;;;;5107291;27;20044;-70
2023/06/10 03:37:26;;;;;;;11.52;7.00;;;17.40;93.10;;;;;;5076276;28;20052;-71
2023/06/10 03:39:52;;;;;;;8.93;6.13;;;17.40;93.60;;;;;;5075557;28;20107;-71
2023/06/10 03:42:18;;;;;;;10.65;6.82;;;17.40;93.70;;;;;;5075222;28;20075;-70
2023/06/10 03:44:46;;;;;;;11.98;6.43;;;17.40;94.10;;;;;;5078085;28;20051;-70
2023/06/10 03:47:12;;;;;;;10.95;6.38;;;17.40;94.30;;;;;;5085271;28;20051;-71
2023/06/10 03:49:40;;;;;;;10.83;6.30;;;17.40;94.40;;;;;;5074920;28;20060;-71
2023/06/10 03:52:06;;;;;;;;;;;17.30;94.70;;;;;;5093327;28;20048;-71
2023/06/10 03:54:34;;;;;;;11.70;7.10;;;17.30;95.10;;;;;;5071242;28;19973;-70
2023/06/10 03:57:00;;;;;;;13.77;7.28;;;17.30;95.00;;;;;;5108321;27;20522;-70
2023/06/10 03:59:26;;;;;;;13.45;6.93;;;17.20;95.20;;;;;;5090534;28;20035;-71
2023/06/10 04:01:51;;;;;;;11.45;6.35;;;17.20;95.50;;;;;;5075258;28;20054;-70
2023/06/10 04:04:17;;;;;;;11.80;6.72;;;17.20;95.80;;;;;;5073019;28;20043;-71
2023/06/10 04:06:44;;;;;;;10.35;6.88;;;17.20;96.10;;;;;;5089743;28;20051;-71
2023/06/10 04:09:10;;;;;;;11.10;7.05;;;17.20;96.70;;;;;;5089625;28;20044;-71
2023/06/10 04:11:36;;;;;;;10.52;6.38;;;17.20;96.90;;;;;;5077388;28;20599;-70
2023/06/10 04:14:02;;;;;;;11.20;6.13;;;17.30;96.90;;;;;;5073410;28;20080;-71
2023/06/10 04:16:28;;;;;;;12.57;6.72;;;17.30;97.30;;;;;;5075780;28;20058;-71
2023/06/10 04:18:54;;;;;;;12.45;6.25;;;17.30;97.30;;;;;;5076308;28;20047;-69
2023/06/10 04:21:21;;;;;;;12.63;7.05;;;17.30;97.80;;;;;;5094697;28;20113;-70
2023/06/10 04:23:47;;;;;;;10.48;6.70;;;17.30;97.90;;;;;;5074688;28;20516;-70
2023/06/10 04:26:13;;;;;;;10.60;6.53;;;17.40;98.00;;;;;;5100369;28;20083;-71
2023/06/10 04:28:38;;;;;;;9.95;6.32;;;17.40;98.30;;;;;;5080531;28;20032;-70
2023/06/10 04:31:04;;;;;;;12.95;6.80;;;17.40;98.30;;;;;;5062256;28;20058;-70
2023/06/10 04:33:33;;;;;;;12.23;6.63;;;17.50;98.50;;;;;;5073407;28;20076;-70
2023/06/10 04:35:58;;;;;;;10.48;6.60;;;17.50;98.60;;;;;;5087067;28;20055;-71
2023/06/10 04:38:24;;;;;;;11.20;7.00;;;17.50;98.80;;;;;;5065791;28;20032;-71
2023/06/10 04:40:50;;;;;;;11.60;6.05;;;17.50;99.20;;;;;;5071013;28;20040;-70
2023/06/10 04:43:16;;;;;;;12.85;6.25;;;17.50;99.30;;;;;;5074250;28;20047;-70
2023/06/10 04:45:44;;;;;;;11.73;6.38;;;17.50;99.30;;;;;;5098116;28;20043;-71
2023/06/10 04:48:10;;;;;;;11.10;6.45;;;17.60;99.60;;;;;;5070954;28;20055;-70
2023/06/10 04:50:37;;;;;;;11.48;6.78;;;17.60;99.60;;;;;;5079239;28;20054;-70
2023/06/10 04:53:03;;;;;;;13.35;6.75;;;17.60;99.60;;;;;;5078809;28;20083;-70
2023/06/10 04:55:29;;;;;;;10.00;6.20;;;17.70;99.70;;;;;;5097718;28;20130;-71
2023/06/10 04:57:55;;;;;;;12.13;6.97;;;17.70;99.80;;;;;;5077729;28;20263;-70
2023/06/10 05:00:21;;;;;;;13.27;6.75;;;17.70;99.80;;;;;;5094362;28;20035;-70
2023/06/10 05:02:51;;;;;;;11.77;6.28;;;17.70;99.90;;;;;;5091587;28;20047;-72
2023/06/10 05:05:19;;;;;;;11.52;6.50;;;17.70;99.90;;;;;;5072184;28;20063;-70
2023/06/10 05:07:45;;;;;;;13.85;6.53;;;17.70;99.90;;;;;;5092056;28;21197;-70
2023/06/10 05:10:12;;;;;;;10.32;6.10;;;17.80;99.90;;;;;;5072493;28;20051;-69
2023/06/10 05:12:38;;;;;;;11.75;6.70;;;17.80;99.90;;;;;;5097175;28;20055;-70
2023/06/10 05:15:06;;;;;;;10.32;6.25;;;17.90;99.90;;;;;;5088327;28;20446;-70
2023/06/10 05:17:31;;;;;;;12.75;6.40;;;17.90;99.90;;;;;;5074216;28;20048;-71
2023/06/10 05:19:57;;;;;;;13.55;6.80;;;17.90;99.90;;;;;;5096329;28;20040;-70
2023/06/10 05:22:24;;;;;;;13.18;6.65;;;18.00;99.90;;;;;;5068411;28;20068;-69
2023/06/10 05:24:51;;;;;;;13.73;6.53;;;18.00;99.90;;;;;;5071821;28;20051;-70
2023/06/10 05:27:16;;;;;;;13.77;6.70;;;18.00;99.90;;;;;;5076742;28;20060;-71
2023/06/10 05:29:42;;;;;;;11.23;6.75;;;18.20;99.90;;;;;;5078268;28;20059;-70
2023/06/10 05:32:08;;;;;;;13.38;6.13;;;18.20;99.90;;;;;;5073076;28;20043;-70
2023/06/10 05:34:34;;;;;;;12.75;6.57;;;18.30;99.90;;;;;;5078941;28;20054;-71
2023/06/10 05:36:59;;;;;;;12.45;6.38;;;18.30;99.90;;;;;;5097129;28;20116;-70
2023/06/10 05:39:25;;;;;;;13.27;6.68;;;18.30;99.90;;;;;;5073984;28;20050;-71
2023/06/10 05:41:51;;;;;;;12.85;6.93;;;18.40;99.90;;;;;;5100293;28;20048;-72
2023/06/10 05:44:17;;;;;;;11.70;6.47;;;18.40;99.90;;;;;;5095231;28;20166;-69
2023/06/10 05:46:42;;;;;;;11.10;6.30;;;18.40;99.90;;;;;;5093635;28;20071;-71
2023/06/10 05:49:08;;;;;;;12.23;6.78;;;18.40;99.90;;;;;;5085752;28;20070;-69
2023/06/10 05:51:33;;;;;;;11.73;6.60;;;18.40;99.90;;;;;;5093797;28;20048;-70
2023/06/10 05:53:59;;;;;;;11.68;7.05;;;18.50;99.90;;;;;;5093896;28;20036;-71
2023/06/10 05:56:25;;;;;;;11.73;6.28;;;18.50;99.90;;;;;;5091084;28;20054;-70
2023/06/10 05:58:51;;;;;;;11.68;6.63;;;18.50;99.90;;;;;;5085134;28;20054;-71
2023/06/10 06:01:20;;;;;;;9.82;5.93;;;18.60;99.90;;;;;;5075987;28;20474;-69
2023/06/10 06:03:45;;;;;;;12.05;6.20;;;18.60;99.90;;;;;;5079835;28;21659;-69
2023/06/10 06:06:11;;;;;;;13.38;6.97;;;18.70;99.90;;;;;;5071369;28;20130;-72
2023/06/10 06:08:37;;;;;;;13.02;6.78;;;18.70;99.90;;;;;;5066767;28;20047;-70
2023/06/10 06:11:02;;;;;;;10.73;6.13;;;18.80;99.90;;;;;;5071821;28;20941;-69
2023/06/10 06:13:28;;;;;;;9.65;6.15;;;18.90;99.90;;;;;;5090244;28;20055;-69
2023/06/10 06:15:54;;;;;;;10.23;6.43;;;19.00;99.90;;;;;;5081173;28;20119;-69
2023/06/10 06:18:20;;;;;;;11.70;5.88;;;19.10;99.90;;;;;;5077137;28;20123;-70
2023/06/10 06:20:45;;;;;;;12.18;6.10;;;19.10;99.90;;;;;;5081539;28;20126;-69
2023/06/10 06:23:11;;;;;;;12.27;6.25;;;19.10;99.90;;;;;;5072425;28;20052;-69
2023/06/10 06:25:38;;;;;;;12.80;6.30;;;19.10;99.90;;;;;;5087183;28;20147;-70
2023/06/10 06:28:08;;;;;;;;;;;19.20;99.90;;;;;;5086966;28;20052;-71
2023/06/10 06:30:35;;;;;;;10.88;6.05;;;19.20;99.90;;;;;;5084981;28;19927;-71
2023/06/10 06:33:01;;;;;;;10.73;6.20;;;19.20;99.90;;;;;;5075092;28;20100;-71
2023/06/10 06:35:26;;;;;;;9.52;5.53;;;19.30;99.90;;;;;;5092234;28;20422;-71
2023/06/10 06:37:52;;;;;;;9.57;6.05;;;19.30;99.90;;;;;;5078120;28;20047;-71
2023/06/10 06:40:18;;;;;;;11.05;6.07;;;19.50;99.90;;;;;;5100648;27;20059;-72
2023/06/10 06:42:44;;;;;;;11.27;6.05;;;19.60;99.90;;;;;;5085322;28;20047;-72
2023/06/10 06:45:10;;;;;;;11.85;6.32;;;19.70;99.90;;;;;;5058619;28;20802;-72
2023/06/10 06:47:36;;;;;;;10.70;5.95;;;19.70;99.90;;;;;;5087313;28;20047;-70
2023/06/10 06:50:02;;;;;;;9.05;5.60;;;19.80;99.70;;;;;;5058854;28;20052;-72
2023/06/10 06:52:28;;;;;;;9.18;5.63;;;19.90;99.70;;;;;;5056824;28;20131;-71
2023/06/10 06:54:53;;;;;;;12.05;5.88;;;20.00;99.50;;;;;;5082465;28;20079;-71
2023/06/10 06:57:19;;;;;;;11.50;6.10;;;20.00;99.20;;;;;;5070833;28;20127;-71
2023/06/10 06:59:45;;;;;;;10.10;6.20;;;20.00;99.50;;;;;;5091932;28;20071;-72
2023/06/10 07:02:11;;;;;;;10.65;5.75;;;20.10;99.20;;;;;;5100904;27;20051;-73
2023/06/10 07:04:36;;;;;;;9.25;5.50;;;20.10;99.00;;;;;;5084724;28;20067;-71
2023/06/10 07:07:04;;;;;;;10.50;6.05;;;20.20;99.20;;;;;;5063215;28;20469;-72
2023/06/10 07:09:30;;;;;;;10.00;6.25;;;20.30;99.30;;;;;;5060763;28;20052;-72
2023/06/10 07:11:56;;;;;;;11.77;6.22;;;20.40;99.20;;;;;;5062651;28;20044;-71
2023/06/10 07:14:21;;;;;;;11.73;6.43;;;20.40;99.10;;;;;;5076342;28;20043;-73
2023/06/10 07:16:48;;;;;;;13.82;6.25;;;20.40;99.30;;;;;;5093035;28;20066;-72
2023/06/10 07:19:14;;;;;;;12.68;6.05;;;20.40;99.20;;;;;;5068437;28;20047;-76
2023/06/10 07:21:39;;;;;;;9.70;6.32;;;20.50;99.10;;;;;;5089273;28;20101;-73
2023/06/10 07:24:05;;;;;;;12.45;6.25;;;20.40;99.00;;;;;;5082011;28;20048;-72
2023/06/10 07:26:31;;;;;;;13.00;6.38;;;20.40;99.00;;;;;;5083141;28;20035;-71
2023/06/10 07:28:57;;;;;;;13.15;6.28;;;20.40;98.80;;;;;;5084977;28;20088;-73
2023/06/10 07:31:23;;;;;;;10.15;6.18;;;20.50;98.90;;;;;;5084341;28;20040;-72
2023/06/10 07:33:49;;;;;;;10.43;6.17;;;20.50;98.80;;;;;;5092124;28;20054;-73
2023/06/10 07:36:14;;;;;;;10.48;6.10;;;20.60;98.90;;;;;;5071987;28;20056;-72
2023/06/10 07:38:42;;;;;;;11.60;5.60;;;20.70;98.90;;;;;;5072774;28;20113;-71
2023/06/10 07:41:08;;;;;;;11.85;6.50;;;20.80;98.90;;;;;;5072639;28;20122;-73
2023/06/10 07:43:33;;;;;;;10.82;5.90;;;20.80;98.50;;;;;;5065791;28;20044;-75
2023/06/10 07:45:59;;;;;;;12.43;6.07;;;20.90;98.30;;;;;;5091581;28;20104;-75
2023/06/10 07:48:25;;;;;;;11.43;6.20;;;21.00;98.20;;;;;;5073330;28;20100;-75
2023/06/10 07:50:52;;;;;;;11.13;6.10;;;21.00;97.90;;;;;;5095193;28;21021;-74
2023/06/10 07:53:18;;;;;;;13.05;6.05;;;21.10;97.80;;;;;;5071967;28;20159;-74
2023/06/10 07:55:45;;;;;;;11.45;5.95;;;21.10;97.60;;;;;;5069857;28;20055;-74
2023/06/10 07:58:10;;;;;;;9.57;5.93;;;21.10;97.50;;;;;;5076217;28;20463;-75
2023/06/10 08:00:36;;;;;;;12.20;5.97;;;21.10;97.80;;;;;;5090862;28;20047;-74
2023/06/10 08:03:02;;;;;;;10.60;5.53;;;21.30;97.80;;;;;;5092676;28;20050;-75
2023/06/10 08:05:27;;;;;;;9.30;5.25;;;21.40;97.80;;;;;;5101164;27;20043;-74
2023/06/10 08:07:53;;;;;;;10.07;5.25;;;21.50;97.50;;;;;;5075532;28;20095;-74
2023/06/10 08:10:19;;;;;;;14.18;6.22;;;21.60;97.40;;;;;;5092773;28;20119;-72
2023/06/10 08:12:45;;;;;;;10.07;6.03;;;21.70;97.00;;;;;;5070703;28;20111;-72
2023/06/10 08:15:11;;;;;;;11.53;6.53;;;21.70;96.80;;;;;;5095730;28;20043;-74
2023/06/10 08:17:37;;;;;;;11.88;7.22;;;21.80;97.10;;;;;;5075471;28;20305;-74
2023/06/10 08:20:03;;;;;;;13.27;7.43;;;21.90;96.50;;;;;;5074172;28;20632;-73
2023/06/10 08:22:29;;;;;;;10.60;6.55;;;21.90;96.20;;;;;;5090921;28;20141;-73
2023/06/10 08:24:55;;;;;;;9.77;6.90;;;21.90;96.00;;;;;;5094306;28;20064;-73
2023/06/10 08:27:21;;;;;;;11.30;6.63;;;21.90;96.00;;;;;;5072869;28;20054;-74
2023/06/10 08:29:47;;;;;;;9.80;7.35;;;22.00;96.10;;;;;;5066477;28;20047;-73
2023/06/10 08:32:13;;;;;;;12.88;8.07;;;22.10;96.10;;;;;;5079248;28;20055;-73
2023/06/10 08:34:39;;;;;;;11.40;7.88;;;22.10;95.80;;;;;;5092765;28;20054;-73
2023/06/10 08:37:05;;;;;;;14.43;7.90;;;22.10;95.50;;;;;;5091301;28;20051;-73
2023/06/10 08:39:33;;;;;;;12.07;7.27;;;22.20;95.70;;;;;;5091835;28;20077;-73
2023/06/10 08:42:02;;;;;;;12.73;7.80;;;22.30;95.50;;;;;;5061193;28;20537;-72
2023/06/10 08:44:31;;;;;;;12.23;8.20;;;22.40;95.50;;;;;;5067030;28;20048;-74
2023/06/10 08:46:59;;;;;;;12.50;7.82;;;22.60;95.70;;;;;;5066757;28;20051;-71
2023/06/10 08:49:26;;;;;;;14.52;9.05;;;22.60;95.40;;;;;;5089015;28;20104;-71
2023/06/10 08:51:58;;;;;;;;;;;22.80;94.90;;;;;;5095562;28;20493;-74
2023/06/10 08:54:31;;;;;;;12.77;9.02;;;22.80;95.30;;;;;;5075759;28;20442;-73
2023/06/10 08:56:59;;;;;;;10.52;8.15;;;22.80;94.50;;;;;;5072027;28;20130;-67
2023/06/10 08:59:25;;;;;;;11.75;8.15;;;22.90;94.30;;;;;;5075570;28;20044;-69
2023/06/10 09:01:52;;;;;;;13.70;8.27;;;23.00;94.50;;;;;;5096616;28;20776;-70
2023/06/10 09:04:19;;;;;;;12.30;8.63;;;23.10;94.70;;;;;;5098023;28;20621;-70
2023/06/10 09:06:45;;;;;;;12.15;7.88;;;23.20;94.10;;;;;;5075063;28;20127;-69
2023/06/10 09:09:13;;;;;;;20.85;9.77;;;23.30;93.80;;;;;;5076156;28;20121;-69
2023/06/10 09:11:41;;;;;;;11.82;7.53;;;23.40;92.90;;;;;;5073302;28;20708;-70
2023/06/10 09:14:07;;;;;;;11.18;7.85;;;23.40;93.20;;;;;;5076562;28;20943;-69
2023/06/10 09:16:33;;;;;;;10.07;7.00;;;23.50;92.80;;;;;;5088613;28;20043;-71
2023/06/10 09:18:59;;;;;;;10.75;8.05;;;23.50;91.70;;;;;;5088715;28;20126;-72
2023/06/10 09:21:25;;;;;;;12.55;7.90;;;23.50;91.30;;;;;;5093561;28;20044;-71
2023/06/10 09:23:51;;;;;;;11.37;8.20;;;23.50;91.30;;;;;;5070957;28;20044;-73
2023/06/10 09:26:17;;;;;;;14.13;7.65;;;23.60;91.20;;;;;;5071832;28;20098;-71
2023/06/10 09:28:47;;;;;;;13.10;7.63;;;23.60;91.50;;;;;;5069536;28;20138;-71
2023/06/10 09:31:13;;;;;;;11.48;7.20;;;23.70;91.40;;;;;;5074672;28;20058;-71
2023/06/10 09:33:39;;;;;;;10.53;8.07;;;23.80;91.10;;;;;;5092143;28;20409;-73
2023/06/10 09:36:05;;;;;;;9.30;7.60;;;23.90;90.60;;;;;;5078921;28;20871;-71
2023/06/10 09:38:33;;;;;;;12.68;8.45;;;24.00;89.60;;;;;;5098063;28;20083;-71
2023/06/10 09:41:01;;;;;;;12.05;8.23;;;24.00;89.50;;;;;;5090905;28;20039;-72
2023/06/10 09:43:44;;;;;;;13.10;7.90;;;24.00;90.30;;;;;;5077646;28;20075;-72
2023/06/10 09:46:17;;;;;;;11.40;7.63;;;24.20;90.20;;;;;;5068879;28;20054;-72
2023/06/10 09:48:44;;;;;;;11.73;7.88;;;24.40;88.60;;;;;;5075139;28;20063;-71
2023/06/10 09:51:10;;;;;;;;;;;24.40;88.20;;;;;;5101961;28;20054;-71
2023/06/10 09:53:37;;;;;;;11.30;7.85;;;24.40;87.60;;;;;;5092660;28;19924;-72
2023/06/10 09:56:03;;;;;;;11.32;7.55;;;24.30;87.60;;;;;;5099073;28;20062;-70
2023/06/10 09:58:39;;;;;;;10.95;7.70;;;24.40;88.00;;;;;;5075982;28;20047;-70
2023/06/10 10:01:15;;;;;;;10.13;7.22;;;24.60;87.80;;;;;;5090990;28;20452;-69
2023/06/10 10:03:45;;;;;;;11.30;6.97;;;24.60;85.40;;;;;;5089855;28;20055;-70
2023/06/10 10:06:11;;;;;;;10.40;6.80;;;24.70;84.90;;;;;;5070893;28;20058;-70
2023/06/10 10:08:37;;;;;;;10.03;6.77;;;24.80;83.50;;;;;;5071502;28;20261;-69
2023/06/10 10:11:03;;;;;;;11.38;6.38;;;24.90;83.30;;;;;;5095992;28;20389;-70
2023/06/10 10:13:30;;;;;;;8.00;6.03;;;24.90;83.90;;;;;;5092900;28;20069;-70
2023/06/10 10:16:01;;;;;;;10.43;5.50;;;25.00;83.10;;;;;;5093432;28;20582;-70
2023/06/10 10:18:30;;;;;;;10.45;5.00;;;25.10;79.90;;;;;;5100940;28;20032;-73
2023/06/10 10:21:00;;;;;;;7.25;5.43;;;25.20;78.90;;;;;;5078174;28;20093;-72
2023/06/10 10:23:34;;;;;;;6.97;4.88;;;25.20;78.80;;;;;;5090756;28;20031;-71
2023/06/10 10:26:04;;;;;;;9.10;4.53;;;25.30;75.20;;;;;;5101876;28;20118;-70
2023/06/10 10:28:41;;;;;;;8.15;4.65;;;25.40;75.90;;;;;;5096226;28;20046;-73
2023/06/10 10:31:11;;;;;;;;;;;25.50;75.20;;;;;;5069974;28;20050;-73
2023/06/10 10:33:57;;;;;;;5.97;3.60;;;25.60;73.80;;;;;;5076893;28;19924;-73
2023/06/10 10:36:23;;;;;;;7.50;3.55;;;25.70;71.60;;;;;;5079986;27;20036;-70
2023/06/10 10:38:49;;;;;;;7.57;4.85;;;25.80;71.00;;;;;;5093321;28;20051;-69
2023/06/10 10:41:16;;;;;;;4.63;3.53;;;25.90;68.80;;;;;;5067335;28;20048;-68
2023/06/10 10:43:43;;;;;;;6.45;3.85;;;25.90;68.40;;;;;;5089302;28;20482;-69
2023/06/10 10:46:17;;;;;;;4.63;3.50;;;25.90;66.00;;;;;;5094432;27;20043;-70
2023/06/10 10:48:44;;;;;;;6.38;3.78;;;26.00;65.50;;;;;;5065347;28;20510;-70
2023/06/10 10:51:10;;;;;;;8.27;4.07;;;26.00;64.20;;;;;;5088134;28;20487;-71
2023/06/10 10:53:39;;;;;;;6.72;3.75;;;26.00;64.60;;;;;;5088728;28;20088;-70
2023/06/10 10:56:07;;;;;;;7.07;3.60;;;26.20;63.40;;;;;;5098336;28;20043;-72
2023/06/10 10:58:33;;;;;;;9.90;3.90;;;26.20;61.80;;;;;;5079211;28;20397;-70
2023/06/10 11:00:59;;;;;;;8.37;3.93;;;26.40;63.00;;;;;;5077222;28;20054;-71
2023/06/10 11:03:31;;;;;;;7.07;3.87;;;26.50;63.60;;;;;;5077070;28;20035;-71
2023/06/10 11:05:58;;;;;;;5.43;3.67;;;26.60;63.80;;;;;;5081707;28;20525;-71
2023/06/10 11:08:33;;;;;;;6.68;3.72;;;26.60;61.70;;;;;;5085713;27;20096;-70
2023/06/10 11:10:59;;;;;;;6.28;3.55;;;26.60;61.70;;;;;;5091727;28;20051;-71
2023/06/10 11:13:27;;;;;;;7.07;4.27;;;26.60;61.40;;;;;;5076198;28;20130;-71
2023/06/10 11:15:57;;;;;;;4.93;3.95;;;26.60;59.10;;;;;;5069923;28;20063;-71
2023/06/10 11:18:25;;;;;;;5.57;3.58;;;26.60;59.60;;;;;;5111484;27;20039;-71
2023/06/10 11:20:55;;;;;;;6.88;3.63;;;26.60;60.30;;;;;;5077915;28;20047;-72
2023/06/10 11:23:41;;;;;;;6.15;4.13;;;26.70;60.20;;;;;;5090869;28;20059;-71
2023/06/10 11:26:17;;;;;;;4.80;3.50;;;26.80;59.00;;;;;;5077740;28;20088;-72
2023/06/10 11:29:03;;;;;;;5.15;3.20;;;26.80;58.50;;;;;;5094894;28;20047;-71
2023/06/10 11:31:36;;;;;;;6.32;3.70;;;26.90;55.20;;;;;;5075528;28;20056;-71
2023/06/10 11:34:04;;;;;;;7.18;3.90;;;26.90;54.60;;;;;;5095619;28;20061;-71
2023/06/10 11:36:31;;;;;;;6.03;3.85;;;26.90;54.10;;;;;;5069187;28;20055;-71
2023/06/10 11:38:58;;;;;;;;;;;26.90;54.20;;;;;;5076128;28;20490;-71
2023/06/10 11:41:27;;;;;;;;;;;27.10;57.20;;;;;;5078252;28;20045;-71
2023/06/10 11:43:56;;;;;;;6.13;3.53;;;27.20;56.80;;;;;;5078196;28;22222;-71
2023/06/10 11:46:22;;;;;;;5.85;3.67;;;27.30;54.80;;;;;;5093200;27;20092;-71
2023/06/10 11:48:58;;;;;;;5.80;3.50;;;27.40;52.90;;;;;;5087373;28;20138;-73
2023/06/10 11:51:33;;;;;;;7.53;3.35;;;27.40;51.60;;;;;;5067156;28;20043;-72
2023/06/10 11:53:59;;;;;;;5.03;3.42;;;27.50;51.10;;;;;;5055934;28;20552;-72
2023/06/10 11:56:27;;;;;;;3.90;2.90;;;27.50;52.30;;;;;;5092444;28;20065;-72
2023/06/10 11:59:07;;;;;;;4.97;2.83;;;27.60;50.90;;;;;;5064802;28;20134;-71
2023/06/10 12:01:43;;;;;;;5.30;3.35;;;27.60;49.70;;;;;;5088235;28;20055;-71
2023/06/10 12:04:12;;;;;;;4.75;3.30;;;27.60;49.80;;;;;;5071531;28;20096;-72
2023/06/10 12:06:52;;;;;;;4.68;3.22;;;27.70;49.80;;;;;;5077140;28;20185;-70
2023/06/10 12:09:18;;;;;;;4.47;3.13;;;27.80;48.30;;;;;;5085290;28;20070;-71
2023/06/10 12:11:45;;;;;;;5.00;3.28;;;27.90;48.80;;;;;;5074640;28;20048;-70
2023/06/10 12:14:10;;;;;;;5.93;3.33;;;28.00;48.10;;;;;;5093420;28;20055;-71
2023/06/10 12:16:36;;;;;;;4.90;3.17;;;28.00;47.70;;;;;;5086778;28;20043;-70
2023/06/10 12:19:03;;;;;;;6.20;3.57;;;28.00;47.10;;;;;;5072096;28;20036;-71
2023/06/10 12:21:32;;;;;;;6.22;3.60;;;28.10;47.90;;;;;;5087690;28;20107;-74
2023/06/10 12:24:07;;;;;;;5.63;3.80;;;28.10;48.20;;;;;;5085800;28;20072;-72
2023/06/10 12:26:40;;;;;;;5.57;3.42;;;28.20;46.30;;;;;;5085037;28;20030;-71
2023/06/10 12:29:18;;;;;;;4.88;3.70;;;28.20;46.70;;;;;;5075773;28;20051;-72
2023/06/10 12:31:58;;;;;;;6.70;4.40;;;28.20;47.40;;;;;;5079157;28;20067;-72
2023/06/10 12:34:34;;;;;;;7.57;4.40;;;28.40;47.50;;;;;;5074306;28;20973;-71
2023/06/10 12:37:01;;;;;;;6.60;3.80;;;28.50;46.80;;;;;;5057089;28;20048;-70
2023/06/10 12:39:27;;;;;;;5.60;3.90;;;28.50;47.70;;;;;;5084911;28;20066;-70
2023/06/10 12:41:53;;;;;;;5.20;3.80;;;28.50;49.00;;;;;;5073639;28;20413;-70
2023/06/10 12:44:29;;;;;;;5.95;4.00;;;28.70;49.10;;;;;;5085556;28;20039;-70